sensor_id;sensor_type;location;lat;lon;timestamp;pressure;altitude;pressure_sealevel;temperature;humidity
18504;BME280;9381;54.244;10.074;2023-01-28T00:04:24;102458.88;;;3.01;90.04
18504;BME280;9381;54.244;10.074;2023-01-28T00:09:24;102466.34;;;2.65;85.26
18504;BME280;9381;54.244;10.074;2023-01-28T00:14:25;102471.78;;;2.85;85.98
18504;BME280;9381;54.244;10.074;2023-01-28T00:19:25;102465.22;;;2.89;86.14
18504;BME280;9381;54.244;10.074;2023-01-28T00:24:25;102465.47;;;2.86;86.94
18504;BME280;9381;54.244;10.074;2023-01-28T00:29:25;102459.50;;;2.82;87.40
18504;BME280;9381;54.244;10.074;2023-01-28T00:34:26;102467.91;;;2.78;88.21
18504;BME280;9381;54.244;10.074;2023-01-28T00:39:26;102451.63;;;2.81;88.74
18504;BME280;9381;54.244;10.074;2023-01-28T00:44:26;102465.72;;;2.83;89.13
18504;BME280;9381;54.244;10.074;2023-01-28T00:49:27;102467.69;;;2.81;89.07
18504;BME280;9381;54.244;10.074;2023-01-28T00:54:27;102459.88;;;2.78;89.65
18504;BME280;9381;54.244;10.074;2023-01-28T00:59:27;102451.16;;;2.76;89.29
18504;BME280;9381;54.244;10.074;2023-01-28T01:04:28;102451.88;;;2.78;88.57
18504;BME280;9381;54.244;10.074;2023-01-28T01:09:34;102453.38;;;2.71;88.23
18504;BME280;9381;54.244;10.074;2023-01-28T01:14:34;102455.19;;;2.71;88.97
18504;BME280;9381;54.244;10.074;2023-01-28T01:19:36;102461.13;;;2.74;89.86
18504;BME280;9381;54.244;10.074;2023-01-28T01:24:36;102457.47;;;2.75;89.95
18504;BME280;9381;54.244;10.074;2023-01-28T01:29:36;102453.97;;;2.75;89.53
18504;BME280;9381;54.244;10.074;2023-01-28T01:34:37;102449.00;;;2.70;88.55
18504;BME280;9381;54.244;10.074;2023-01-28T01:39:37;102444.41;;;2.61;88.86
18504;BME280;9381;54.244;10.074;2023-01-28T01:45:14;102439.81;;;2.52;89.05
18504;BME280;9381;54.244;10.074;2023-01-28T01:55:34;102439.06;;;2.39;90.32
18504;BME280;9381;54.244;10.074;2023-01-28T02:00:34;102431.19;;;2.27;90.20
18504;BME280;9381;54.244;10.074;2023-01-28T02:05:35;102431.81;;;2.19;89.76
18504;BME280;9381;54.244;10.074;2023-01-28T02:10:36;102432.78;;;2.07;89.55
18504;BME280;9381;54.244;10.074;2023-01-28T02:15:36;102429.50;;;1.93;89.96
18504;BME280;9381;54.244;10.074;2023-01-28T02:26:25;102434.44;;;1.75;90.05
18504;BME280;9381;54.244;10.074;2023-01-28T02:31:41;102436.84;;;1.67;90.38
18504;BME280;9381;54.244;10.074;2023-01-28T02:41:52;102418.28;;;1.55;91.37
18504;BME280;9381;54.244;10.074;2023-01-28T02:46:54;102422.88;;;1.42;91.27
18504;BME280;9381;54.244;10.074;2023-01-28T03:08:57;102414.94;;;1.29;92.77
18504;BME280;9381;54.244;10.074;2023-01-28T03:14:17;102412.75;;;1.23;92.98
18504;BME280;9381;54.244;10.074;2023-01-28T03:19:37;102409.59;;;1.18;92.55
18504;BME280;9381;54.244;10.074;2023-01-28T03:24:57;102414.75;;;1.09;92.36
18504;BME280;9381;54.244;10.074;2023-01-28T03:30:20;102419.94;;;0.99;92.58
18504;BME280;9381;54.244;10.074;2023-01-28T03:35:40;102415.28;;;0.90;92.48
18504;BME280;9381;54.244;10.074;2023-01-28T03:41:02;102411.28;;;0.85;92.42
18504;BME280;9381;54.244;10.074;2023-01-28T03:46:03;102421.28;;;0.81;92.36
18504;BME280;9381;54.244;10.074;2023-01-28T03:51:05;102403.38;;;0.83;92.52
18504;BME280;9381;54.244;10.074;2023-01-28T03:56:06;102412.56;;;0.79;92.76
18504;BME280;9381;54.244;10.074;2023-01-28T04:01:06;102407.63;;;0.86;92.82
18504;BME280;9381;54.244;10.074;2023-01-28T04:06:08;102409.34;;;0.87;92.41
18504;BME280;9381;54.244;10.074;2023-01-28T04:11:08;102419.38;;;0.83;93.21
18504;BME280;9381;54.244;10.074;2023-01-28T04:16:16;102415.25;;;0.79;92.81
18504;BME280;9381;54.244;10.074;2023-01-28T04:21:16;102418.28;;;0.86;93.60
18504;BME280;9381;54.244;10.074;2023-01-28T04:26:16;102416.97;;;0.91;93.42
18504;BME280;9381;54.244;10.074;2023-01-28T04:31:17;102423.63;;;0.86;93.24
18504;BME280;9381;54.244;10.074;2023-01-28T04:36:17;102419.81;;;0.77;92.88
18504;BME280;9381;54.244;10.074;2023-01-28T04:41:18;102411.09;;;0.75;92.73
18504;BME280;9381;54.244;10.074;2023-01-28T04:46:19;102406.22;;;0.69;92.88
18504;BME280;9381;54.244;10.074;2023-01-28T04:51:19;102401.13;;;0.66;92.46
18504;BME280;9381;54.244;10.074;2023-01-28T04:56:20;102419.25;;;0.61;93.12
18504;BME280;9381;54.244;10.074;2023-01-28T05:01:20;102406.28;;;0.57;93.77
18504;BME280;9381;54.244;10.074;2023-01-28T05:06:20;102385.06;;;0.55;93.62
18504;BME280;9381;54.244;10.074;2023-01-28T05:11:21;102373.03;;;0.62;93.22
18504;BME280;9381;54.244;10.074;2023-01-28T05:16:21;102372.22;;;0.49;93.19
18504;BME280;9381;54.244;10.074;2023-01-28T05:21:21;102367.56;;;0.40;92.98
18504;BME280;9381;54.244;10.074;2023-01-28T05:26:21;102358.13;;;0.36;93.08
18504;BME280;9381;54.244;10.074;2023-01-28T05:31:22;102349.94;;;0.27;93.24
18504;BME280;9381;54.244;10.074;2023-01-28T05:36:22;102353.16;;;0.19;93.79
18504;BME280;9381;54.244;10.074;2023-01-28T05:41:23;102334.47;;;0.08;94.22
18504;BME280;9381;54.244;10.074;2023-01-28T05:46:23;102330.63;;;0.12;94.54
18504;BME280;9381;54.244;10.074;2023-01-28T05:51:24;102325.53;;;0.09;94.79
18504;BME280;9381;54.244;10.074;2023-01-28T05:56:24;102330.03;;;-0.03;95.57
18504;BME280;9381;54.244;10.074;2023-01-28T06:01:24;102339.41;;;-0.10;97.12
18504;BME280;9381;54.244;10.074;2023-01-28T06:06:25;102347.25;;;0.03;96.98
18504;BME280;9381;54.244;10.074;2023-01-28T06:11:25;102363.00;;;0.06;97.09
18504;BME280;9381;54.244;10.074;2023-01-28T06:16:26;102370.22;;;0.04;96.50
18504;BME280;9381;54.244;10.074;2023-01-28T06:21:26;102360.22;;;0.08;96.72
18504;BME280;9381;54.244;10.074;2023-01-28T06:26:27;102380.13;;;0.02;96.61
18504;BME280;9381;54.244;10.074;2023-01-28T06:31:27;102398.66;;;0.04;97.12
18504;BME280;9381;54.244;10.074;2023-01-28T06:36:28;102396.38;;;0.10;97.03
18504;BME280;9381;54.244;10.074;2023-01-28T06:41:28;102401.47;;;0.13;96.71
18504;BME280;9381;54.244;10.074;2023-01-28T06:46:29;102394.94;;;-0.06;97.46
18504;BME280;9381;54.244;10.074;2023-01-28T06:51:29;102385.38;;;-0.08;97.34
18504;BME280;9381;54.244;10.074;2023-01-28T06:56:30;102378.59;;;-0.25;99.08
18504;BME280;9381;54.244;10.074;2023-01-28T07:01:30;102383.91;;;-0.25;98.74
18504;BME280;9381;54.244;10.074;2023-01-28T07:06:30;102399.00;;;-0.25;100.00
18504;BME280;9381;54.244;10.074;2023-01-28T07:11:31;102398.97;;;-0.13;98.27
18504;BME280;9381;54.244;10.074;2023-01-28T07:16:31;102402.63;;;-0.26;99.17
18504;BME280;9381;54.244;10.074;2023-01-28T07:21:32;102407.50;;;-0.08;97.81
18504;BME280;9381;54.244;10.074;2023-01-28T07:26:32;102397.94;;;-0.23;98.69
18504;BME280;9381;54.244;10.074;2023-01-28T07:31:32;102410.25;;;-0.09;98.15
18504;BME280;9381;54.244;10.074;2023-01-28T07:36:32;102411.00;;;-0.08;98.13
18504;BME280;9381;54.244;10.074;2023-01-28T07:41:33;102398.09;;;-0.01;98.80
18504;BME280;9381;54.244;10.074;2023-01-28T07:46:33;102407.47;;;0.04;99.44
18504;BME280;9381;54.244;10.074;2023-01-28T07:51:34;102408.22;;;0.06;100.00
18504;BME280;9381;54.244;10.074;2023-01-28T07:56:34;102404.69;;;0.06;100.00
18504;BME280;9381;54.244;10.074;2023-01-28T08:01:34;102408.53;;;0.14;100.00
18504;BME280;9381;54.244;10.074;2023-01-28T08:06:35;102419.75;;;0.30;100.00
18504;BME280;9381;54.244;10.074;2023-01-28T08:11:37;102419.88;;;0.65;98.46
18504;BME280;9381;54.244;10.074;2023-01-28T08:16:38;102431.66;;;0.73;97.72
18504;BME280;9381;54.244;10.074;2023-01-28T08:21:38;102448.16;;;0.78;98.25
18504;BME280;9381;54.244;10.074;2023-01-28T08:26:39;102442.41;;;0.95;98.03
18504;BME280;9381;54.244;10.074;2023-01-28T08:31:39;102438.56;;;0.99;97.26
18504;BME280;9381;54.244;10.074;2023-01-28T08:36:39;102451.44;;;0.82;97.14
18504;BME280;9381;54.244;10.074;2023-01-28T08:41:39;102451.91;;;0.99;97.47
18504;BME280;9381;54.244;10.074;2023-01-28T08:46:40;102461.88;;;1.08;96.70
18504;BME280;9381;54.244;10.074;2023-01-28T08:51:40;102466.13;;;1.45;95.93
18504;BME280;9381;54.244;10.074;2023-01-28T08:56:40;102468.50;;;1.61;95.81
18504;BME280;9381;54.244;10.074;2023-01-28T09:01:44;102462.75;;;1.43;96.04
18504;BME280;9381;54.244;10.074;2023-01-28T09:06:44;102458.69;;;1.61;95.23
18504;BME280;9381;54.244;10.074;2023-01-28T09:11:45;102436.44;;;1.39;96.67
18504;BME280;9381;54.244;10.074;2023-01-28T09:16:45;102440.47;;;1.55;96.58
18504;BME280;9381;54.244;10.074;2023-01-28T09:21:45;102435.66;;;1.60;96.65
18504;BME280;9381;54.244;10.074;2023-01-28T09:26:48;102428.38;;;1.62;96.61
18504;BME280;9381;54.244;10.074;2023-01-28T09:31:49;102425.25;;;1.79;97.14
18504;BME280;9381;54.244;10.074;2023-01-28T09:36:50;102415.28;;;1.70;97.74
18504;BME280;9381;54.244;10.074;2023-01-28T09:42:00;102405.25;;;1.85;96.89
18504;BME280;9381;54.244;10.074;2023-01-28T09:47:11;102426.94;;;1.80;96.38
18504;BME280;9381;54.244;10.074;2023-01-28T09:52:18;102434.91;;;1.58;98.04
18504;BME280;9381;54.244;10.074;2023-01-28T09:57:24;102441.09;;;1.70;98.67
18504;BME280;9381;54.244;10.074;2023-01-28T10:08:00;102414.53;;;1.68;99.10
18504;BME280;9381;54.244;10.074;2023-01-28T10:13:30;102403.41;;;1.74;98.48
18504;BME280;9381;54.244;10.074;2023-01-28T10:19:02;102386.31;;;1.99;98.36
18504;BME280;9381;54.244;10.074;2023-01-28T10:24:24;102377.97;;;1.70;99.10
18504;BME280;9381;54.244;10.074;2023-01-28T10:29:30;102360.50;;;1.88;99.39
18504;BME280;9381;54.244;10.074;2023-01-28T10:34:32;102346.66;;;2.16;98.61
18504;BME280;9381;54.244;10.074;2023-01-28T10:39:32;102337.81;;;2.05;98.13
18504;BME280;9381;54.244;10.074;2023-01-28T10:44:41;102332.13;;;1.87;98.52
18504;BME280;9381;54.244;10.074;2023-01-28T10:49:48;102337.44;;;1.98;98.33
18504;BME280;9381;54.244;10.074;2023-01-28T10:55:03;102325.09;;;1.97;99.19
18504;BME280;9381;54.244;10.074;2023-01-28T11:00:22;102335.50;;;2.00;98.87
18504;BME280;9381;54.244;10.074;2023-01-28T11:05:26;102334.53;;;1.90;99.91
18504;BME280;9381;54.244;10.074;2023-01-28T11:10:32;102334.03;;;2.07;100.00
18504;BME280;9381;54.244;10.074;2023-01-28T11:15:33;102346.19;;;2.00;99.69
18504;BME280;9381;54.244;10.074;2023-01-28T11:20:39;102330.25;;;2.10;99.80
18504;BME280;9381;54.244;10.074;2023-01-28T11:25:40;102320.38;;;2.32;99.21
18504;BME280;9381;54.244;10.074;2023-01-28T11:30:40;102303.03;;;2.38;99.53
18504;BME280;9381;54.244;10.074;2023-01-28T11:35:41;102315.34;;;2.18;98.63
18504;BME280;9381;54.244;10.074;2023-01-28T11:40:53;102315.66;;;2.67;97.34
18504;BME280;9381;54.244;10.074;2023-01-28T11:46:07;102316.00;;;2.42;97.97
18504;BME280;9381;54.244;10.074;2023-01-28T11:56:48;102295.59;;;2.52;99.18
18504;BME280;9381;54.244;10.074;2023-01-28T12:07:03;102271.41;;;2.54;99.29
18504;BME280;9381;54.244;10.074;2023-01-28T12:12:23;102260.69;;;2.85;98.58
18504;BME280;9381;54.244;10.074;2023-01-28T12:17:41;102266.00;;;3.26;97.43
18504;BME280;9381;54.244;10.074;2023-01-28T12:33:36;102249.97;;;3.56;95.76
18504;BME280;9381;54.244;10.074;2023-01-28T12:44:10;102259.66;;;2.97;97.05
18504;BME280;9381;54.244;10.074;2023-01-28T12:49:27;102252.84;;;2.93;97.88
18504;BME280;9381;54.244;10.074;2023-01-28T12:54:39;102253.63;;;2.84;98.59
18504;BME280;9381;54.244;10.074;2023-01-28T13:00:05;102254.22;;;2.87;98.87
18504;BME280;9381;54.244;10.074;2023-01-28T13:05:20;102248.81;;;2.98;98.65
18504;BME280;9381;54.244;10.074;2023-01-28T13:15:37;102262.16;;;3.19;97.10
18504;BME280;9381;54.244;10.074;2023-01-28T13:25:51;102257.63;;;2.89;98.49
18504;BME280;9381;54.244;10.074;2023-01-28T13:31:00;102250.78;;;2.96;98.77
18504;BME280;9381;54.244;10.074;2023-01-28T13:41:47;102230.69;;;3.02;97.64
18504;BME280;9381;54.244;10.074;2023-01-28T13:46:48;102234.41;;;3.10;98.20
18504;BME280;9381;54.244;10.074;2023-01-28T13:52:12;102235.13;;;2.92;98.03
18504;BME280;9381;54.244;10.074;2023-01-28T14:18:56;102242.28;;;3.12;100.00
18504;BME280;9381;54.244;10.074;2023-01-28T14:23:58;102236.50;;;2.86;100.00
18504;BME280;9381;54.244;10.074;2023-01-28T14:34:29;102220.78;;;2.93;100.00
18504;BME280;9381;54.244;10.074;2023-01-28T14:39:36;102222.53;;;3.03;100.00
18504;BME280;9381;54.244;10.074;2023-01-28T14:44:40;102234.72;;;3.17;100.00
18504;BME280;9381;54.244;10.074;2023-01-28T14:49:44;102227.22;;;3.11;100.00
18504;BME280;9381;54.244;10.074;2023-01-28T14:59:57;102188.50;;;3.05;100.00
18504;BME280;9381;54.244;10.074;2023-01-28T15:05:19;102192.44;;;3.01;100.00
18504;BME280;9381;54.244;10.074;2023-01-28T15:10:25;102194.72;;;3.06;100.00
18504;BME280;9381;54.244;10.074;2023-01-28T15:15:37;102213.97;;;3.09;100.00
18504;BME280;9381;54.244;10.074;2023-01-28T15:20:46;102220.28;;;2.99;100.00
18504;BME280;9381;54.244;10.074;2023-01-28T15:25:47;102227.31;;;3.30;100.00
18504;BME280;9381;54.244;10.074;2023-01-28T15:30:47;102199.25;;;3.15;100.00
18504;BME280;9381;54.244;10.074;2023-01-28T15:35:49;102207.34;;;3.04;100.00
18504;BME280;9381;54.244;10.074;2023-01-28T15:40:54;102206.03;;;3.19;100.00
18504;BME280;9381;54.244;10.074;2023-01-28T15:45:56;102198.88;;;3.19;100.00
18504;BME280;9381;54.244;10.074;2023-01-28T15:51:05;102189.69;;;3.12;100.00
18504;BME280;9381;54.244;10.074;2023-01-28T15:56:11;102180.00;;;3.21;100.00
18504;BME280;9381;54.244;10.074;2023-01-28T16:01:15;102190.88;;;3.29;100.00
18504;BME280;9381;54.244;10.074;2023-01-28T16:06:21;102204.41;;;3.37;100.00
18504;BME280;9381;54.244;10.074;2023-01-28T16:16:34;102184.84;;;3.06;100.00
18504;BME280;9381;54.244;10.074;2023-01-28T16:21:37;102180.44;;;3.26;100.00
18504;BME280;9381;54.244;10.074;2023-01-28T16:26:42;102180.66;;;3.13;100.00
18504;BME280;9381;54.244;10.074;2023-01-28T16:31:43;102191.25;;;3.15;100.00
18504;BME280;9381;54.244;10.074;2023-01-28T16:36:43;102188.91;;;3.31;100.00
18504;BME280;9381;54.244;10.074;2023-01-28T16:41:45;102189.69;;;3.52;100.00
18504;BME280;9381;54.244;10.074;2023-01-28T16:46:45;102191.47;;;3.42;100.00
18504;BME280;9381;54.244;10.074;2023-01-28T16:51:46;102186.38;;;3.29;100.00
18504;BME280;9381;54.244;10.074;2023-01-28T16:56:46;102173.66;;;3.22;100.00
18504;BME280;9381;54.244;10.074;2023-01-28T17:01:47;102186.38;;;3.29;100.00
18504;BME280;9381;54.244;10.074;2023-01-28T17:06:48;102176.78;;;3.27;100.00
18504;BME280;9381;54.244;10.074;2023-01-28T17:11:48;102179.81;;;3.13;100.00
18504;BME280;9381;54.244;10.074;2023-01-28T17:16:48;102188.91;;;3.31;100.00
18504;BME280;9381;54.244;10.074;2023-01-28T17:21:49;102188.94;;;3.40;100.00
18504;BME280;9381;54.244;10.074;2023-01-28T17:26:53;102183.38;;;3.23;100.00
18504;BME280;9381;54.244;10.074;2023-01-28T17:31:53;102188.91;;;3.31;100.00
18504;BME280;9381;54.244;10.074;2023-01-28T17:36:53;102191.56;;;3.31;100.00
18504;BME280;9381;54.244;10.074;2023-01-28T17:41:54;102193.72;;;3.37;100.00
18504;BME280;9381;54.244;10.074;2023-01-28T17:46:55;102209.75;;;3.37;100.00
18504;BME280;9381;54.244;10.074;2023-01-28T17:51:55;102204.59;;;3.45;100.00
18504;BME280;9381;54.244;10.074;2023-01-28T17:56:56;102207.56;;;3.51;100.00
18504;BME280;9381;54.244;10.074;2023-01-28T18:01:57;102212.63;;;3.54;100.00
18504;BME280;9381;54.244;10.074;2023-01-28T18:06:57;102207.31;;;3.64;100.00
18504;BME280;9381;54.244;10.074;2023-01-28T18:11:58;102200.81;;;3.57;100.00
18504;BME280;9381;54.244;10.074;2023-01-28T18:16:58;102198.88;;;3.68;100.00
18504;BME280;9381;54.244;10.074;2023-01-28T18:21:59;102192.25;;;3.63;100.00
18504;BME280;9381;54.244;10.074;2023-01-28T18:27:00;102181.97;;;3.58;100.00
18504;BME280;9381;54.244;10.074;2023-01-28T18:32:01;102188.44;;;3.56;100.00
18504;BME280;9381;54.244;10.074;2023-01-28T18:37:01;102185.31;;;3.51;100.00
18504;BME280;9381;54.244;10.074;2023-01-28T18:42:03;102170.22;;;3.50;100.00
18504;BME280;9381;54.244;10.074;2023-01-28T18:47:03;102158.13;;;3.55;100.00
18504;BME280;9381;54.244;10.074;2023-01-28T18:52:03;102162.63;;;3.45;100.00
18504;BME280;9381;54.244;10.074;2023-01-28T18:57:04;102163.09;;;3.60;100.00
18504;BME280;9381;54.244;10.074;2023-01-28T19:02:04;102160.16;;;3.63;100.00
18504;BME280;9381;54.244;10.074;2023-01-28T19:07:05;102144.25;;;3.71;100.00
18504;BME280;9381;54.244;10.074;2023-01-28T19:12:05;102139.72;;;3.62;100.00
18504;BME280;9381;54.244;10.074;2023-01-28T19:17:05;102141.16;;;3.75;100.00
18504;BME280;9381;54.244;10.074;2023-01-28T19:22:06;102132.84;;;3.88;100.00
18504;BME280;9381;54.244;10.074;2023-01-28T19:27:07;102147.34;;;3.76;100.00
18504;BME280;9381;54.244;10.074;2023-01-28T19:32:07;102144.69;;;3.85;100.00
18504;BME280;9381;54.244;10.074;2023-01-28T19:37:08;102146.50;;;3.85;100.00
18504;BME280;9381;54.244;10.074;2023-01-28T19:42:08;102136.78;;;3.84;100.00
18504;BME280;9381;54.244;10.074;2023-01-28T19:47:08;102138.06;;;3.80;100.00
18504;BME280;9381;54.244;10.074;2023-01-28T19:52:09;102139.47;;;3.74;100.00
18504;BME280;9381;54.244;10.074;2023-01-28T19:57:10;102119.47;;;3.88;100.00
18504;BME280;9381;54.244;10.074;2023-01-28T20:02:10;102130.16;;;3.88;100.00
18504;BME280;9381;54.244;10.074;2023-01-28T20:07:10;102129.03;;;3.90;100.00
18504;BME280;9381;54.244;10.074;2023-01-28T20:12:11;102139.06;;;3.98;100.00
18504;BME280;9381;54.244;10.074;2023-01-28T20:17:13;102127.63;;;4.15;100.00
18504;BME280;9381;54.244;10.074;2023-01-28T20:22:14;102121.31;;;4.16;100.00
18504;BME280;9381;54.244;10.074;2023-01-28T20:27:14;102113.97;;;4.37;100.00
18504;BME280;9381;54.244;10.074;2023-01-28T20:32:15;102116.63;;;4.27;100.00
18504;BME280;9381;54.244;10.074;2023-01-28T20:37:15;102103.13;;;4.29;100.00
18504;BME280;9381;54.244;10.074;2023-01-28T20:42:16;102101.72;;;4.15;100.00
18504;BME280;9381;54.244;10.074;2023-01-28T20:47:16;102089.44;;;4.32;100.00
18504;BME280;9381;54.244;10.074;2023-01-28T20:52:16;102085.91;;;4.22;100.00
18504;BME280;9381;54.244;10.074;2023-01-28T20:57:17;102091.00;;;4.15;100.00
18504;BME280;9381;54.244;10.074;2023-01-28T21:02:17;102098.75;;;4.18;100.00
18504;BME280;9381;54.244;10.074;2023-01-28T21:07:18;102102.25;;;4.28;100.00
18504;BME280;9381;54.244;10.074;2023-01-28T21:12:18;102090.44;;;4.21;100.00
18504;BME280;9381;54.244;10.074;2023-01-28T21:17:19;102090.41;;;4.40;100.00
18504;BME280;9381;54.244;10.074;2023-01-28T21:22:20;102079.84;;;4.39;100.00
18504;BME280;9381;54.244;10.074;2023-01-28T21:27:20;102075.22;;;4.31;100.00
18504;BME280;9381;54.244;10.074;2023-01-28T21:32:21;102082.53;;;4.29;100.00
18504;BME280;9381;54.244;10.074;2023-01-28T21:37:21;102085.63;;;4.44;100.00
18504;BME280;9381;54.244;10.074;2023-01-28T21:42:22;102099.00;;;4.34;100.00
18504;BME280;9381;54.244;10.074;2023-01-28T21:47:22;102070.63;;;4.51;100.00
18504;BME280;9381;54.244;10.074;2023-01-28T21:52:23;102077.09;;;4.58;100.00
18504;BME280;9381;54.244;10.074;2023-01-28T21:57:23;102076.28;;;4.57;100.00
18504;BME280;9381;54.244;10.074;2023-01-28T22:02:24;102078.53;;;4.62;100.00
18504;BME280;9381;54.244;10.074;2023-01-28T22:07:24;102072.84;;;4.65;100.00
18504;BME280;9381;54.244;10.074;2023-01-28T22:12:24;102072.53;;;4.77;100.00
18504;BME280;9381;54.244;10.074;2023-01-28T22:17:26;102053.03;;;4.85;100.00
18504;BME280;9381;54.244;10.074;2023-01-28T22:22:27;102043.28;;;4.84;100.00
18504;BME280;9381;54.244;10.074;2023-01-28T22:27:27;102037.16;;;5.01;100.00
18504;BME280;9381;54.244;10.074;2023-01-28T22:32:27;102033.22;;;4.95;100.00
18504;BME280;9381;54.244;10.074;2023-01-28T22:37:28;102021.84;;;5.11;100.00
18504;BME280;9381;54.244;10.074;2023-01-28T22:42:28;102027.53;;;5.08;100.00
18504;BME280;9381;54.244;10.074;2023-01-28T22:47:28;102007.25;;;4.96;100.00
18504;BME280;9381;54.244;10.074;2023-01-28T22:52:29;102018.47;;;5.09;100.00
18504;BME280;9381;54.244;10.074;2023-01-28T22:57:29;102031.03;;;5.08;100.00
18504;BME280;9381;54.244;10.074;2023-01-28T23:02:29;102024.91;;;5.16;100.00
18504;BME280;9381;54.244;10.074;2023-01-28T23:07:30;102027.41;;;5.27;100.00
18504;BME280;9381;54.244;10.074;2023-01-28T23:12:30;102042.53;;;5.18;100.00
18504;BME280;9381;54.244;10.074;2023-01-28T23:17:31;102032.94;;;5.16;100.00
18504;BME280;9381;54.244;10.074;2023-01-28T23:22:50;102044.00;;;5.13;100.00
18504;BME280;9381;54.244;10.074;2023-01-28T23:28:09;102042.72;;;5.17;100.00
18504;BME280;9381;54.244;10.074;2023-01-28T23:33:09;102048.59;;;5.20;100.00
18504;BME280;9381;54.244;10.074;2023-01-28T23:38:10;102045.56;;;5.33;100.00
18504;BME280;9381;54.244;10.074;2023-01-28T23:43:10;102051.91;;;5.32;100.00
18504;BME280;9381;54.244;10.074;2023-01-28T23:48:11;102052.16;;;5.38;100.00
18504;BME280;9381;54.244;10.074;2023-01-28T23:53:12;102049.41;;;5.48;100.00
18504;BME280;9381;54.244;10.074;2023-01-28T23:58:13;102036.81;;;5.31;100.00
